VRE739 DRRN-DFFD
Flight info
| Callsign | VRE739 |
|---|---|
| Flight time | 0h 43m |
| Altitude | 24000 |
| Route | BANGA1W BANGA G854 BULSA EDGAS1L |
| Aircraft | A319/M-SDE3FGHIRWY/LB1 |
Departure
| Time | 2026-04-25 20:40 |
|---|---|
| Airport | Diori Hamani International Airport (DRRN) |
Arrival
| Time | 2026-04-25 21:23 |
|---|---|
| Airport | Ouagadougou Thomas Sankara International Airport (DFFD) |
| Time | Latitude | Longitude | Altitude | Speed | Heading |
|---|---|---|---|---|---|
| 2026-04-25 20:17 | 13.47779 | 2.17785 | 730 ft | 0 kts | 178° |
| 2026-04-25 20:30 | 13.47783 | 2.17785 | 729 ft | 2 kts | 175° |
| 2026-04-25 20:30 | 13.47799 | 2.17784 | 729 ft | 2 kts | 178° |
| 2026-04-25 20:31 | 13.47816 | 2.17783 | 729 ft | 2 kts | 178° |
| 2026-04-25 20:31 | 13.47832 | 2.17783 | 729 ft | 2 kts | 181° |
| 2026-04-25 20:31 | 13.47849 | 2.17785 | 729 ft | 2 kts | 210° |
| 2026-04-25 20:31 | 13.47860 | 2.17796 | 730 ft | 2 kts | 254° |
| 2026-04-25 20:32 | 13.47863 | 2.17804 | 729 ft | 1 kts | 267° |
| 2026-04-25 20:35 | 13.47862 | 2.17799 | 730 ft | 2 kts | 267° |
| 2026-04-25 20:35 | 13.47861 | 2.17775 | 730 ft | 6 kts | 267° |
| 2026-04-25 20:35 | 13.47859 | 2.17728 | 730 ft | 7 kts | 267° |
| 2026-04-25 20:36 | 13.47864 | 2.17672 | 730 ft | 8 kts | 291° |
| 2026-04-25 20:36 | 13.47916 | 2.17648 | 731 ft | 10 kts | 357° |
| 2026-04-25 20:36 | 13.47990 | 2.17645 | 731 ft | 12 kts | 357° |
| 2026-04-25 20:36 | 13.48077 | 2.17641 | 730 ft | 14 kts | 357° |
| 2026-04-25 20:37 | 13.48170 | 2.17620 | 730 ft | 14 kts | 302° |
| 2026-04-25 20:37 | 13.48186 | 2.17521 | 730 ft | 14 kts | 280° |
| 2026-04-25 20:37 | 13.48183 | 2.17418 | 731 ft | 15 kts | 262° |
| 2026-04-25 20:37 | 13.48186 | 2.17309 | 732 ft | 15 kts | 262° |
| 2026-04-25 20:38 | 13.48172 | 2.17201 | 734 ft | 15 kts | 268° |
| 2026-04-25 20:38 | 13.48167 | 2.17093 | 736 ft | 15 kts | 267° |
| 2026-04-25 20:38 | 13.48132 | 2.17000 | 737 ft | 15 kts | 223° |
| 2026-04-25 20:38 | 13.48159 | 2.16974 | 736 ft | 11 kts | 52° |
| 2026-04-25 20:39 | 13.48167 | 2.17061 | 736 ft | 15 kts | 88° |
| 2026-04-25 20:39 | 13.48175 | 2.17256 | 733 ft | 55 kts | 87° |
| 2026-04-25 20:39 | 13.48202 | 2.17895 | 729 ft | 124 kts | 88° |
| 2026-04-25 20:39 | 13.48218 | 2.18217 | 727 ft | 143 kts | 86° |
| 2026-04-25 20:40 | 13.48258 | 2.20226 | 1342 ft | 175 kts | 102° |
| 2026-04-25 20:40 | 13.47849 | 2.21384 | 1995 ft | 171 kts | 124° |
| 2026-04-25 20:40 | 13.47114 | 2.22341 | 2590 ft | 174 kts | 141° |
| 2026-04-25 20:40 | 13.46053 | 2.23064 | 2938 ft | 193 kts | 158° |
| 2026-04-25 20:41 | 13.44681 | 2.23407 | 3211 ft | 216 kts | 178° |
| 2026-04-25 20:41 | 13.43117 | 2.23165 | 3649 ft | 241 kts | 200° |
| 2026-04-25 20:41 | 13.41671 | 2.22192 | 4110 ft | 264 kts | 227° |
| 2026-04-25 20:41 | 13.40768 | 2.20517 | 4836 ft | 276 kts | 256° |
| 2026-04-25 20:42 | 13.40725 | 2.18538 | 5716 ft | 282 kts | 279° |
| 2026-04-25 20:42 | 13.41054 | 2.16544 | 6660 ft | 285 kts | 281° |
| 2026-04-25 20:42 | 13.41394 | 2.14532 | 7613 ft | 288 kts | 281° |
| 2026-04-25 20:42 | 13.41739 | 2.12491 | 8586 ft | 291 kts | 282° |
| 2026-04-25 20:43 | 13.42084 | 2.10430 | 9381 ft | 295 kts | 282° |
| 2026-04-25 20:43 | 13.42424 | 2.08344 | 10031 ft | 301 kts | 282° |
| 2026-04-25 20:43 | 13.42784 | 2.06140 | 10404 ft | 323 kts | 282° |
| 2026-04-25 20:43 | 13.43074 | 2.03806 | 11066 ft | 335 kts | 274° |
| 2026-04-25 20:44 | 13.42902 | 2.01426 | 11838 ft | 343 kts | 262° |
| 2026-04-25 20:44 | 13.42330 | 1.98994 | 12654 ft | 349 kts | 255° |
| 2026-04-25 20:44 | 13.41566 | 1.96642 | 13456 ft | 354 kts | 252° |
| 2026-04-25 20:44 | 13.40713 | 1.94253 | 14186 ft | 358 kts | 251° |
| 2026-04-25 20:45 | 13.39856 | 1.91841 | 14926 ft | 360 kts | 252° |
| 2026-04-25 20:45 | 13.39033 | 1.89399 | 15683 ft | 362 kts | 253° |
| 2026-04-25 20:45 | 13.38251 | 1.86936 | 16456 ft | 364 kts | 253° |
| 2026-04-25 20:45 | 13.37498 | 1.84449 | 17224 ft | 365 kts | 254° |
| 2026-04-25 20:46 | 13.36762 | 1.81946 | 18003 ft | 367 kts | 254° |
| 2026-04-25 20:46 | 13.36026 | 1.79428 | 18663 ft | 369 kts | 254° |
| 2026-04-25 20:46 | 13.35534 | 1.77751 | 19107 ft | 370 kts | 254° |
| 2026-04-25 20:46 | 13.34541 | 1.74398 | 19991 ft | 372 kts | 253° |
| 2026-04-25 20:47 | 13.33779 | 1.71852 | 20650 ft | 374 kts | 253° |
| 2026-04-25 20:47 | 13.33012 | 1.69293 | 21326 ft | 375 kts | 253° |
| 2026-04-25 20:47 | 13.32501 | 1.67594 | 21765 ft | 376 kts | 253° |
| 2026-04-25 20:47 | 13.31470 | 1.64155 | 22663 ft | 378 kts | 253° |
| 2026-04-25 20:48 | 13.30958 | 1.62445 | 23093 ft | 379 kts | 253° |
| 2026-04-25 20:48 | 13.30179 | 1.59851 | 23672 ft | 381 kts | 253° |
| 2026-04-25 20:48 | 13.29393 | 1.57237 | 24157 ft | 384 kts | 253° |
| 2026-04-25 20:48 | 13.28603 | 1.54605 | 24628 ft | 387 kts | 253° |
| 2026-04-25 20:49 | 13.27806 | 1.51953 | 25078 ft | 390 kts | 253° |
| 2026-04-25 20:49 | 13.27000 | 1.49278 | 25528 ft | 394 kts | 253° |
| 2026-04-25 20:49 | 13.26185 | 1.46574 | 25977 ft | 397 kts | 253° |
| 2026-04-25 20:49 | 13.25368 | 1.43852 | 26416 ft | 400 kts | 253° |
| 2026-04-25 20:50 | 13.24557 | 1.41141 | 26846 ft | 403 kts | 253° |
| 2026-04-25 20:50 | 13.23729 | 1.38371 | 27271 ft | 406 kts | 253° |
| 2026-04-25 20:50 | 13.22895 | 1.35593 | 27692 ft | 409 kts | 253° |
| 2026-04-25 20:50 | 13.22049 | 1.32790 | 28112 ft | 413 kts | 253° |
| 2026-04-25 20:51 | 13.21194 | 1.29967 | 28536 ft | 416 kts | 253° |
| 2026-04-25 20:51 | 13.20332 | 1.27123 | 28956 ft | 419 kts | 253° |
| 2026-04-25 20:51 | 13.19466 | 1.24253 | 29384 ft | 422 kts | 253° |
| 2026-04-25 20:51 | 13.18594 | 1.21366 | 29732 ft | 425 kts | 253° |
| 2026-04-25 20:52 | 13.17154 | 1.16605 | 29808 ft | 408 kts | 253° |
| 2026-04-25 20:52 | 13.16069 | 1.13011 | 29813 ft | 391 kts | 253° |
| 2026-04-25 20:52 | 13.15269 | 1.10361 | 29815 ft | 387 kts | 253° |
| 2026-04-25 20:53 | 13.13685 | 1.05096 | 29816 ft | 385 kts | 253° |
| 2026-04-25 20:53 | 13.12094 | 0.99845 | 29817 ft | 385 kts | 253° |
| 2026-04-25 20:54 | 13.10511 | 0.94627 | 29819 ft | 386 kts | 253° |
| 2026-04-25 20:54 | 13.08918 | 0.89373 | 29818 ft | 386 kts | 253° |
| 2026-04-25 20:55 | 13.07322 | 0.84118 | 29814 ft | 386 kts | 253° |
| 2026-04-25 20:55 | 13.05722 | 0.78853 | 29813 ft | 386 kts | 253° |
| 2026-04-25 20:56 | 13.04128 | 0.73593 | 29812 ft | 386 kts | 253° |
| 2026-04-25 20:56 | 13.02543 | 0.68373 | 29813 ft | 386 kts | 253° |
| 2026-04-25 20:57 | 13.00938 | 0.63112 | 29818 ft | 386 kts | 253° |
| 2026-04-25 20:57 | 12.99332 | 0.57856 | 29811 ft | 386 kts | 253° |
| 2026-04-25 20:58 | 12.97734 | 0.52595 | 29812 ft | 386 kts | 253° |
| 2026-04-25 20:58 | 12.96134 | 0.47334 | 29816 ft | 386 kts | 253° |
| 2026-04-25 20:59 | 12.94530 | 0.42072 | 29815 ft | 386 kts | 253° |
| 2026-04-25 20:59 | 12.92935 | 0.36857 | 29821 ft | 386 kts | 253° |
| 2026-04-25 21:00 | 12.91583 | 0.32453 | 29815 ft | 386 kts | 253° |
| 2026-04-25 21:01 | 12.88918 | 0.23717 | 29815 ft | 386 kts | 253° |
| 2026-04-25 21:01 | 12.87307 | 0.18456 | 29817 ft | 387 kts | 253° |
| 2026-04-25 21:02 | 12.85690 | 0.13190 | 29761 ft | 388 kts | 253° |
| 2026-04-25 21:02 | 12.84879 | 0.10559 | 29492 ft | 386 kts | 253° |
| 2026-04-25 21:02 | 12.84083 | 0.07965 | 29224 ft | 384 kts | 253° |
| 2026-04-25 21:02 | 12.83282 | 0.05357 | 28968 ft | 383 kts | 253° |
| 2026-04-25 21:03 | 12.82485 | 0.02754 | 28701 ft | 381 kts | 253° |
| 2026-04-25 21:03 | 12.81692 | 0.00170 | 28443 ft | 379 kts | 253° |
| 2026-04-25 21:03 | 12.80898 | -0.02409 | 28191 ft | 378 kts | 253° |
| 2026-04-25 21:03 | 12.80111 | -0.04969 | 27944 ft | 376 kts | 253° |
| 2026-04-25 21:04 | 12.79332 | -0.07490 | 27689 ft | 375 kts | 253° |
| 2026-04-25 21:04 | 12.78538 | -0.10063 | 27449 ft | 372 kts | 253° |
| 2026-04-25 21:04 | 12.77775 | -0.12541 | 27121 ft | 368 kts | 253° |
| 2026-04-25 21:04 | 12.77005 | -0.15044 | 26702 ft | 367 kts | 253° |
| 2026-04-25 21:05 | 12.76242 | -0.17529 | 26304 ft | 365 kts | 253° |
| 2026-04-25 21:05 | 12.75477 | -0.20018 | 25866 ft | 364 kts | 253° |
| 2026-04-25 21:05 | 12.74715 | -0.22494 | 25436 ft | 364 kts | 253° |
| 2026-04-25 21:05 | 12.73952 | -0.24964 | 24999 ft | 363 kts | 253° |
| 2026-04-25 21:06 | 12.73187 | -0.27433 | 24548 ft | 363 kts | 253° |
| 2026-04-25 21:06 | 12.72423 | -0.29899 | 24093 ft | 363 kts | 253° |
| 2026-04-25 21:06 | 12.71670 | -0.32343 | 23641 ft | 363 kts | 253° |
| 2026-04-25 21:06 | 12.71155 | -0.34015 | 23309 ft | 364 kts | 253° |
| 2026-04-25 21:07 | 12.70146 | -0.37283 | 22663 ft | 363 kts | 253° |
| 2026-04-25 21:07 | 12.69383 | -0.39742 | 22198 ft | 361 kts | 253° |
| 2026-04-25 21:07 | 12.68625 | -0.42183 | 21760 ft | 359 kts | 253° |
| 2026-04-25 21:07 | 12.67873 | -0.44618 | 21312 ft | 357 kts | 253° |
| 2026-04-25 21:08 | 12.67127 | -0.47043 | 20877 ft | 356 kts | 253° |
| 2026-04-25 21:08 | 12.66383 | -0.49457 | 20444 ft | 355 kts | 253° |
| 2026-04-25 21:08 | 12.65649 | -0.51837 | 20012 ft | 354 kts | 253° |
| 2026-04-25 21:08 | 12.64907 | -0.54238 | 19579 ft | 353 kts | 253° |
| 2026-04-25 21:09 | 12.63424 | -0.59031 | 18709 ft | 352 kts | 253° |
| 2026-04-25 21:09 | 12.62681 | -0.61422 | 18288 ft | 352 kts | 252° |
| 2026-04-25 21:09 | 12.61936 | -0.63817 | 17823 ft | 352 kts | 253° |
| 2026-04-25 21:10 | 12.61194 | -0.66208 | 17391 ft | 351 kts | 253° |
| 2026-04-25 21:10 | 12.60457 | -0.68586 | 16978 ft | 349 kts | 253° |
| 2026-04-25 21:10 | 12.59722 | -0.70948 | 16558 ft | 348 kts | 253° |
| 2026-04-25 21:10 | 12.58986 | -0.73307 | 16148 ft | 347 kts | 253° |
| 2026-04-25 21:11 | 12.58261 | -0.75632 | 15750 ft | 347 kts | 253° |
| 2026-04-25 21:11 | 12.57529 | -0.77984 | 15344 ft | 347 kts | 253° |
| 2026-04-25 21:11 | 12.56799 | -0.80339 | 14947 ft | 346 kts | 253° |
| 2026-04-25 21:11 | 12.56068 | -0.82691 | 14547 ft | 347 kts | 253° |
| 2026-04-25 21:12 | 12.55336 | -0.85042 | 14145 ft | 347 kts | 253° |
| 2026-04-25 21:12 | 12.54604 | -0.87391 | 13812 ft | 345 kts | 253° |
| 2026-04-25 21:12 | 12.53873 | -0.89742 | 13430 ft | 344 kts | 253° |
| 2026-04-25 21:12 | 12.53394 | -0.91286 | 13099 ft | 345 kts | 253° |
| 2026-04-25 21:13 | 12.52426 | -0.94402 | 12562 ft | 343 kts | 253° |
| 2026-04-25 21:13 | 12.51707 | -0.96711 | 12184 ft | 341 kts | 253° |
| 2026-04-25 21:13 | 12.50990 | -0.99006 | 11924 ft | 336 kts | 253° |
| 2026-04-25 21:13 | 12.50288 | -1.01250 | 11518 ft | 335 kts | 253° |
| 2026-04-25 21:14 | 12.49570 | -1.03546 | 11074 ft | 333 kts | 253° |
| 2026-04-25 21:14 | 12.48867 | -1.05799 | 10673 ft | 331 kts | 253° |
| 2026-04-25 21:14 | 12.48175 | -1.08012 | 10283 ft | 329 kts | 252° |
| 2026-04-25 21:14 | 12.47617 | -1.10260 | 9820 ft | 324 kts | 263° |
| 2026-04-25 21:15 | 12.47613 | -1.12519 | 9495 ft | 310 kts | 277° |
| 2026-04-25 21:15 | 12.48253 | -1.14549 | 9142 ft | 297 kts | 301° |
| 2026-04-25 21:15 | 12.49430 | -1.16262 | 8632 ft | 292 kts | 308° |
| 2026-04-25 21:15 | 12.50673 | -1.17897 | 8076 ft | 290 kts | 309° |
| 2026-04-25 21:16 | 12.51926 | -1.19511 | 7529 ft | 288 kts | 309° |
| 2026-04-25 21:16 | 12.53178 | -1.21106 | 6994 ft | 286 kts | 309° |
| 2026-04-25 21:16 | 12.54368 | -1.22721 | 6447 ft | 283 kts | 298° |
| 2026-04-25 21:16 | 12.54996 | -1.24607 | 5902 ft | 279 kts | 276° |
| 2026-04-25 21:17 | 12.54868 | -1.26562 | 5351 ft | 275 kts | 253° |
| 2026-04-25 21:17 | 12.54288 | -1.28417 | 4924 ft | 271 kts | 251° |
| 2026-04-25 21:17 | 12.53720 | -1.30183 | 4806 ft | 256 kts | 251° |
| 2026-04-25 21:17 | 12.53173 | -1.31877 | 4682 ft | 246 kts | 251° |
| 2026-04-25 21:18 | 12.52646 | -1.33509 | 4571 ft | 236 kts | 251° |
| 2026-04-25 21:18 | 12.52138 | -1.35085 | 4406 ft | 231 kts | 251° |
| 2026-04-25 21:18 | 12.51636 | -1.36644 | 4201 ft | 230 kts | 250° |
| 2026-04-25 21:18 | 12.51138 | -1.38194 | 3965 ft | 229 kts | 250° |
| 2026-04-25 21:19 | 12.50645 | -1.39721 | 3820 ft | 228 kts | 250° |
| 2026-04-25 21:19 | 12.49906 | -1.41141 | 3687 ft | 223 kts | 230° |
| 2026-04-25 21:19 | 12.48796 | -1.42186 | 3568 ft | 213 kts | 212° |
| 2026-04-25 21:19 | 12.47565 | -1.43008 | 3456 ft | 209 kts | 212° |
| 2026-04-25 21:20 | 12.46383 | -1.43804 | 3356 ft | 195 kts | 212° |
| 2026-04-25 21:20 | 12.45652 | -1.44318 | 3270 ft | 184 kts | 213° |
| 2026-04-25 21:20 | 12.44291 | -1.45248 | 2926 ft | 164 kts | 211° |
| 2026-04-25 21:20 | 12.43363 | -1.45857 | 2631 ft | 154 kts | 210° |
| 2026-04-25 21:21 | 12.42490 | -1.46445 | 2439 ft | 144 kts | 211° |
| 2026-04-25 21:21 | 12.41682 | -1.46993 | 2246 ft | 135 kts | 212° |
| 2026-04-25 21:21 | 12.40918 | -1.47526 | 2077 ft | 132 kts | 212° |
| 2026-04-25 21:21 | 12.40154 | -1.48039 | 1856 ft | 129 kts | 210° |
| 2026-04-25 21:22 | 12.39393 | -1.48524 | 1814 ft | 129 kts | 209° |
| 2026-04-25 21:22 | 12.38648 | -1.49027 | 1607 ft | 129 kts | 211° |
| 2026-04-25 21:22 | 12.37887 | -1.49525 | 1445 ft | 129 kts | 208° |
| 2026-04-25 21:22 | 12.37138 | -1.50030 | 1231 ft | 129 kts | 211° |
| 2026-04-25 21:23 | 12.36385 | -1.50523 | 1018 ft | 128 kts | 210° |
| 2026-04-25 21:23 | 12.35710 | -1.50970 | 1007 ft | 98 kts | 214° |
| 2026-04-25 21:23 | 12.35284 | -1.51257 | 1017 ft | 48 kts | 213° |
| 2026-04-25 21:23 | 12.35114 | -1.51370 | 1021 ft | 12 kts | 212° |
| 2026-04-25 21:24 | 12.35031 | -1.51424 | 1021 ft | 18 kts | 212° |
| 2026-04-25 21:24 | 12.35018 | -1.51532 | 1024 ft | 17 kts | 297° |
| 2026-04-25 21:24 | 12.35073 | -1.51579 | 1024 ft | 5 kts | 52° |
| 2026-04-25 21:24 | 12.35112 | -1.51563 | 1023 ft | 8 kts | 2° |
| 2026-04-25 21:25 | 12.35163 | -1.51535 | 1021 ft | 11 kts | 49° |
| 2026-04-25 21:25 | 12.35224 | -1.51469 | 1020 ft | 14 kts | 38° |
| 2026-04-25 21:25 | 12.35317 | -1.51405 | 1017 ft | 18 kts | 33° |
| 2026-04-25 21:25 | 12.35422 | -1.51343 | 1015 ft | 13 kts | 1° |
| 2026-04-25 21:26 | 12.35477 | -1.51348 | 1014 ft | 6 kts | 106° |
| 2026-04-25 21:26 | 12.35473 | -1.51340 | 1014 ft | 2 kts | 105° |
| 2026-04-25 21:26 | 12.35483 | -1.51327 | 1014 ft | 4 kts | 37° |
| 2026-04-25 21:26 | 12.35491 | -1.51322 | 1014 ft | 0 kts | 32° |